Time;durP1;ratioP1;P1;durP2;ratioP2;P2;SDS_P1;SDS_P2;PMS_P1;PMS_P2;Temp;Humidity;BMP_temperature;BMP_pressure;BME280_temperature;BME280_humidity;BME280_pressure;Samples;Min_cycle;Max_cycle;Signal;HPM_P1;HPM_P2
2023/04/08 00:02:22;;;;;;;;;;;;;;;6.07;100.00;96054.47;5121510;27;20634;-75
2023/04/08 00:04:48;;;;;;;;;;;;;;;6.06;100.00;96047.66;5117824;27;19930;-76
2023/04/08 00:07:14;;;;;;;;;;;;;;;5.74;100.00;96058.34;5120907;27;19934;-76
2023/04/08 00:09:40;;;;;;;;;;;;;;;5.63;100.00;96053.63;5115102;27;20022;-75
2023/04/08 00:12:07;;;;;;;;;;;;;;;5.54;100.00;96056.56;5109010;27;20297;-75
2023/04/08 00:14:33;;;;;;;;;;;;;;;5.63;100.00;96063.06;5121692;27;19924;-74
2023/04/08 00:17:00;;;;;;;;;;;;;;;5.82;100.00;96058.88;5114785;27;19928;-75
2023/04/08 00:19:28;;;;;;;;;;;;;;;6.00;100.00;96068.47;5112205;27;20312;-76
2023/04/08 00:21:54;;;;;;;;;;;;;;;6.08;100.00;96070.72;5118881;27;19935;-76
2023/04/08 00:24:20;;;;;;;;;;;;;;;5.91;100.00;96070.56;5114937;27;20302;-75
2023/04/08 00:26:46;;;;;;;;;;;;;;;5.84;100.00;96072.53;5109439;27;19928;-76
2023/04/08 00:29:13;;;;;;;;;;;;;;;5.78;100.00;96070.19;5107685;27;19924;-76
2023/04/08 00:31:40;;;;;;;;;;;;;;;5.89;100.00;96069.75;5118308;27;19935;-76
2023/04/08 00:34:06;;;;;;;;;;;;;;;6.06;100.00;96067.41;5105124;27;19990;-76
2023/04/08 00:36:35;;;;;;;;;;;;;;;6.03;100.00;96078.63;5113397;27;19932;-76
2023/04/08 00:39:03;;;;;;;;;;;;;;;6.10;100.00;96074.09;5107039;27;19930;-76
2023/04/08 00:41:29;;;;;;;;;;;;;;;6.13;100.00;96075.72;5111774;27;19934;-76
2023/04/08 00:43:56;;;;;;;;;;;;;;;6.00;100.00;96072.78;5113218;27;20414;-75
2023/04/08 00:46:22;;;;;;;;;;;;;;;6.00;100.00;96073.63;5107783;27;19931;-75
2023/04/08 00:48:48;;;;;;;;;;;;;;;5.82;100.00;96074.31;5121517;27;20301;-76
2023/04/08 00:51:15;;;;;;;;;;;;;;;5.87;100.00;96079.28;5121249;27;19935;-75
2023/04/08 00:53:42;;;;;;;;;;;;;;;5.75;100.00;96072.91;5127990;27;20289;-75
2023/04/08 00:56:09;;;;;;;;;;;;;;;5.75;100.00;96078.03;5109012;27;19928;-75
2023/04/08 00:58:35;;;;;;;;;;;;;;;5.79;100.00;96075.28;5111185;27;19962;-75
2023/04/08 01:01:05;;;;;;;;;;;;;;;5.80;100.00;96073.53;5107367;27;20404;-76
2023/04/08 01:03:35;;;;;;;;;;;;;;;5.77;100.00;96081.38;5102138;27;20389;-76
2023/04/08 01:06:07;;;;;;;;;;;;;;;5.83;100.00;96074.25;5115878;27;19930;-76
2023/04/08 01:08:35;;;;;;;;;;;;;;;5.83;100.00;96071.69;5119621;27;19947;-76
2023/04/08 01:11:03;;;;;;;;;;;;;;;5.86;100.00;96073.31;5114483;27;19931;-76
2023/04/08 01:13:31;;;;;;;;;;;;;;;5.81;100.00;96067.50;5101926;27;19934;-76
2023/04/08 01:15:57;;;;;;;;;;;;;;;5.83;100.00;96078.56;5120676;27;20048;-76
2023/04/08 01:18:24;;;;;;;;;;;;;;;5.64;100.00;96068.19;5112653;27;19942;-75
2023/04/08 01:20:51;;;;;;;;;;;;;;;5.53;100.00;96075.47;5107511;27;19971;-76
2023/04/08 01:23:20;;;;;;;;;;;;;;;5.56;100.00;96076.19;5114678;27;19924;-75
2023/04/08 01:25:49;;;;;;;;;;;;;;;5.46;100.00;96074.84;5111552;27;20302;-76
2023/04/08 01:28:17;;;;;;;;;;;;;;;5.38;100.00;96078.56;5108097;27;19932;-76
2023/04/08 01:30:45;;;;;;;;;;;;;;;5.31;100.00;96071.13;5117216;27;19934;-76
2023/04/08 01:33:12;;;;;;;;;;;;;;;5.40;100.00;96069.94;5119432;27;19923;-76
2023/04/08 01:35:39;;;;;;;;;;;;;;;5.45;100.00;96085.16;5110460;27;20147;-76
2023/04/08 01:38:07;;;;;;;;;;;;;;;5.52;100.00;96077.16;5119391;27;19924;-76
2023/04/08 01:40:34;;;;;;;;;;;;;;;5.41;100.00;96078.47;5112416;27;20403;-76
2023/04/08 01:43:02;;;;;;;;;;;;;;;5.44;100.00;96079.19;5103110;27;19994;-75
2023/04/08 01:45:30;;;;;;;;;;;;;;;5.69;100.00;96075.69;5109449;28;19932;-76
2023/04/08 01:47:56;;;;;;;;;;;;;;;5.76;100.00;96077.97;5108327;28;19924;-76
2023/04/08 01:50:23;;;;;;;;;;;;;;;5.78;100.00;96073.63;5113146;27;19924;-76
2023/04/08 01:52:52;;;;;;;;;;;;;;;5.76;100.00;96077.13;5116296;27;19934;-75
2023/04/08 01:55:18;;;;;;;;;;;;;;;5.64;100.00;96073.31;5118636;27;20018;-75
2023/04/08 01:57:48;;;;;;;;;;;;;;;5.58;100.00;96068.41;5113733;27;20382;-76
2023/04/08 02:00:19;;;;;;;;;;;;;;;5.59;100.00;96073.47;5116878;27;19924;-75
2023/04/08 02:02:46;;;;;;;;;;;;;;;5.70;100.00;96064.50;5109321;27;20014;-76
2023/04/08 02:05:12;;;;;;;;;;;;;;;5.70;100.00;96073.06;5107303;27;19924;-76
2023/04/08 02:07:38;;;;;;;;;;;;;;;5.55;100.00;96073.66;5113661;27;19935;-76
2023/04/08 02:10:05;;;;;;;;;;;;;;;5.62;100.00;96074.25;5108765;27;19931;-76
2023/04/08 02:12:33;;;;;;;;;;;;;;;5.43;100.00;96076.69;5107647;27;19927;-75
2023/04/08 02:14:59;;;;;;;;;;;;;;;5.38;100.00;96073.44;5112096;27;19939;-75
2023/04/08 02:17:33;;;;;;;;;;;;;;;5.30;100.00;96078.88;5113737;27;19943;-76
2023/04/08 02:20:03;;;;;;;;;;;;;;;5.31;100.00;96073.69;5111735;27;19932;-76
2023/04/08 02:22:31;;;;;;;;;;;;;;;5.30;100.00;96077.16;5102267;27;20610;-76
2023/04/08 02:24:59;;;;;;;;;;;;;;;5.30;100.00;96077.16;5114474;27;19946;-76
2023/04/08 02:27:26;;;;;;;;;;;;;;;5.22;100.00;96068.88;5108200;28;20522;-76
2023/04/08 02:29:54;;;;;;;;;;;;;;;5.22;100.00;96066.31;5108313;28;19938;-75
2023/04/08 02:32:23;;;;;;;;;;;;;;;5.21;100.00;96074.09;5111395;28;20378;-76
2023/04/08 02:34:50;;;;;;;;;;;;;;;5.20;100.00;96073.25;5104858;28;19935;-75
2023/04/08 02:37:17;;;;;;;;;;;;;;;5.18;100.00;96069.88;5108787;28;19924;-75
2023/04/08 02:39:43;;;;;;;;;;;;;;;5.20;100.00;96072.41;5115750;28;19927;-75
2023/04/08 02:42:09;;;;;;;;;;;;;;;5.22;100.00;96075.75;5105624;28;19932;-76
2023/04/08 02:44:36;;;;;;;;;;;;;;;5.33;100.00;96073.63;5115795;28;19927;-76
2023/04/08 02:47:02;;;;;;;;;;;;;;;5.33;100.00;96077.03;5113783;28;19923;-75
2023/04/08 02:49:28;;;;;;;;;;;;;;;5.31;100.00;96065.16;5121440;28;19934;-76
2023/04/08 02:51:56;;;;;;;;;;;;;;;5.44;100.00;96062.94;5123458;28;19928;-76
2023/04/08 02:54:23;;;;;;;;;;;;;;;5.46;100.00;96071.44;5118574;28;19923;-76
2023/04/08 02:56:50;;;;;;;;;;;;;;;5.56;100.00;96060.75;5117947;28;20313;-74
2023/04/08 02:59:16;;;;;;;;;;;;;;;5.60;100.00;96066.63;5113720;28;19924;-75
2023/04/08 03:01:42;;;;;;;;;;;;;;;5.51;100.00;96069.53;5119488;28;20309;-75
2023/04/08 03:04:08;;;;;;;;;;;;;;;5.53;100.00;96076.28;5111963;28;19931;-76
2023/04/08 03:06:35;;;;;;;;;;;;;;;5.65;100.00;96076.72;5115857;28;19923;-76
2023/04/08 03:09:03;;;;;;;;;;;;;;;5.66;100.00;96080.94;5115782;28;19946;-75
2023/04/08 03:11:29;;;;;;;;;;;;;;;5.68;100.00;96074.88;5109645;28;20609;-76
2023/04/08 03:13:55;;;;;;;;;;;;;;;5.69;100.00;96073.13;5112280;28;19931;-75
2023/04/08 03:16:22;;;;;;;;;;;;;;;5.69;100.00;96076.53;5116099;28;20405;-76
2023/04/08 03:18:49;;;;;;;;;;;;;;;5.57;100.00;96077.84;5116351;28;19923;-76
2023/04/08 03:21:15;;;;;;;;;;;;;;;5.51;100.00;96079.81;5116737;27;19924;-76
2023/04/08 03:23:41;;;;;;;;;;;;;;;5.39;100.00;96068.25;5114211;27;19924;-76
2023/04/08 03:26:09;;;;;;;;;;;;;;;5.41;100.00;96068.19;5122583;27;19927;-76
2023/04/08 03:28:36;;;;;;;;;;;;;;;5.32;100.00;96067.66;5108431;27;20382;-76
2023/04/08 03:31:02;;;;;;;;;;;;;;;5.29;100.00;96069.50;5118520;27;19931;-76
2023/04/08 03:33:29;;;;;;;;;;;;;;;5.27;100.00;96071.28;5113285;27;20297;-75
2023/04/08 03:35:55;;;;;;;;;;;;;;;5.21;100.00;96072.34;5118005;27;19931;-75
2023/04/08 03:38:21;;;;;;;;;;;;;;;5.26;100.00;96079.88;5109663;27;19924;-76
2023/04/08 03:40:48;;;;;;;;;;;;;;;5.41;100.00;96078.47;5118210;27;19942;-75
2023/04/08 03:43:15;;;;;;;;;;;;;;;5.73;100.00;96088.34;5112840;27;19932;-76
2023/04/08 03:45:41;;;;;;;;;;;;;;;5.89;100.00;96080.88;5120801;27;19931;-76
2023/04/08 03:48:08;;;;;;;;;;;;;;;5.90;100.00;96081.75;5115431;27;19924;-76
2023/04/08 03:50:34;;;;;;;;;;;;;;;5.75;100.00;96081.44;5130119;27;19928;-76
2023/04/08 03:53:00;;;;;;;;;;;;;;;5.68;100.00;96080.00;5116144;27;19924;-76
2023/04/08 03:55:27;;;;;;;;;;;;;;;5.50;100.00;96076.41;5118765;27;19923;-76
2023/04/08 03:57:53;;;;;;;;;;;;;;;5.42;100.00;96075.84;5123687;27;19933;-76
2023/04/08 04:00:21;;;;;;;;;;;;;;;5.36;100.00;96081.22;5125061;27;19954;-75
2023/04/08 04:02:47;;;;;;;;;;;;;;;5.26;100.00;96079.88;5119048;27;19924;-76
2023/04/08 04:05:13;;;;;;;;;;;;;;;5.15;100.00;96079.44;5121689;27;19931;-76
2023/04/08 04:07:39;;;;;;;;;;;;;;;5.20;100.00;96074.97;5114584;27;19935;-75
2023/04/08 04:10:06;;;;;;;;;;;;;;;5.21;100.00;96079.22;5117745;27;19931;-75
2023/04/08 04:12:33;;;;;;;;;;;;;;;5.25;100.00;96076.47;5104156;27;19928;-76
2023/04/08 04:14:59;;;;;;;;;;;;;;;5.08;100.00;96076.28;5118648;27;19941;-74
2023/04/08 04:17:27;;;;;;;;;;;;;;;5.10;100.00;96071.91;5114834;27;19931;-76
2023/04/08 04:19:53;;;;;;;;;;;;;;;5.11;100.00;96081.28;5120057;27;19924;-76
2023/04/08 04:22:19;;;;;;;;;;;;;;;5.08;100.00;96084.81;5112653;27;19946;-76
2023/04/08 04:24:47;;;;;;;;;;;;;;;5.14;100.00;96080.31;5126881;27;20389;-76
2023/04/08 04:27:13;;;;;;;;;;;;;;;5.14;100.00;96086.31;5116522;27;19931;-76
2023/04/08 04:29:40;;;;;;;;;;;;;;;5.15;100.00;96082.81;5124886;27;19932;-76
2023/04/08 04:32:07;;;;;;;;;;;;;;;5.09;100.00;96081.34;5115893;27;19924;-75
2023/04/08 04:34:35;;;;;;;;;;;;;;;5.06;100.00;96083.19;5119312;27;19932;-76
2023/04/08 04:37:01;;;;;;;;;;;;;;;5.06;100.00;96083.19;5118338;27;19928;-74
2023/04/08 04:39:27;;;;;;;;;;;;;;;5.03;100.00;96080.72;5119915;27;19930;-76
2023/04/08 04:41:54;;;;;;;;;;;;;;;5.05;100.00;96090.03;5124290;27;19928;-76
2023/04/08 04:44:20;;;;;;;;;;;;;;;5.02;100.00;96082.44;5122136;27;19932;-76
2023/04/08 04:46:46;;;;;;;;;;;;;;;5.14;100.00;96085.47;5121381;27;19931;-75
2023/04/08 04:49:13;;;;;;;;;;;;;;;5.23;100.00;96090.28;5099303;27;19924;-76
2023/04/08 04:51:40;;;;;;;;;;;;;;;5.18;100.00;96090.44;5108663;27;19931;-75
2023/04/08 04:54:06;;;;;;;;;;;;;;;5.21;100.00;96092.06;5113142;27;19930;-76
2023/04/08 04:56:33;;;;;;;;;;;;;;;5.20;100.00;96092.97;5108942;27;19923;-76
2023/04/08 04:58:59;;;;;;;;;;;;;;;5.28;100.00;96091.78;5108799;27;19932;-74
2023/04/08 05:01:27;;;;;;;;;;;;;;;5.37;100.00;96093.16;5113179;27;20400;-75
2023/04/08 05:03:54;;;;;;;;;;;;;;;5.44;100.00;96097.16;5115737;27;19972;-75
2023/04/08 05:06:20;;;;;;;;;;;;;;;5.51;100.00;96090.91;5123334;27;20413;-76
2023/04/08 05:08:48;;;;;;;;;;;;;;;5.52;100.00;96096.88;5113078;27;19930;-76
2023/04/08 05:11:17;;;;;;;;;;;;;;;5.38;100.00;96099.13;5117126;27;20499;-75
2023/04/08 05:13:43;;;;;;;;;;;;;;;5.22;100.00;96099.69;5112546;27;19969;-76
2023/04/08 05:16:09;;;;;;;;;;;;;;;5.24;100.00;96109.91;5112372;27;20488;-75
2023/04/08 05:18:36;;;;;;;;;;;;;;;5.37;100.00;96113.69;5101045;27;19927;-75
2023/04/08 05:21:02;;;;;;;;;;;;;;;5.47;100.00;96112.47;5107327;27;20473;-75
2023/04/08 05:23:28;;;;;;;;;;;;;;;5.55;100.00;96123.28;5106391;27;19927;-75
2023/04/08 05:25:56;;;;;;;;;;;;;;;5.56;100.00;96124.13;5101757;27;19931;-76
2023/04/08 05:28:22;;;;;;;;;;;;;;;5.50;100.00;96120.06;5116009;27;19927;-76
2023/04/08 05:30:50;;;;;;;;;;;;;;;5.32;100.00;96120.75;5105581;27;20348;-75
2023/04/08 05:33:16;;;;;;;;;;;;;;;5.24;100.00;96117.63;5114548;27;19924;-75
2023/04/08 05:35:42;;;;;;;;;;;;;;;5.18;100.00;96115.28;5104506;27;19967;-75
2023/04/08 05:38:09;;;;;;;;;;;;;;;5.17;100.00;96121.31;5119145;27;20394;-75
2023/04/08 05:40:35;;;;;;;;;;;;;;;5.13;100.00;96118.00;5111108;27;19925;-75
2023/04/08 05:43:03;;;;;;;;;;;;;;;5.28;100.00;96108.91;5118320;27;19930;-76
2023/04/08 05:45:29;;;;;;;;;;;;;;;5.32;100.00;96115.59;5105973;27;19932;-75
2023/04/08 05:47:55;;;;;;;;;;;;;;;5.42;100.00;96123.84;5105087;27;19924;-76
2023/04/08 05:50:22;;;;;;;;;;;;;;;5.53;100.00;96125.09;5119681;27;19924;-76
2023/04/08 05:52:48;;;;;;;;;;;;;;;5.50;100.00;96125.22;5115537;27;20373;-75
2023/04/08 05:55:14;;;;;;;;;;;;;;;5.59;100.00;96124.03;5113456;27;19924;-76
2023/04/08 05:57:41;;;;;;;;;;;;;;;5.49;100.00;96122.72;5121532;27;20385;-75
2023/04/08 06:00:10;;;;;;;;;;;;;;;5.53;100.00;96132.81;5105933;27;19931;-75
2023/04/08 06:02:36;;;;;;;;;;;;;;;5.49;100.00;96131.25;5105899;27;19946;-76
2023/04/08 06:05:03;;;;;;;;;;;;;;;5.57;100.00;96131.78;5101185;27;19931;-76
2023/04/08 06:07:30;;;;;;;;;;;;;;;5.50;100.00;96138.06;5109567;28;20405;-76
2023/04/08 06:09:56;;;;;;;;;;;;;;;5.63;100.00;96141.00;5109113;27;19955;-76
2023/04/08 06:12:22;;;;;;;;;;;;;;;5.75;100.00;96147.44;5105575;27;19931;-76
2023/04/08 06:14:53;;;;;;;;;;;;;;;5.89;100.00;96150.28;5113257;28;19928;-76
2023/04/08 06:17:20;;;;;;;;;;;;;;;5.82;100.00;96151.41;5119090;27;19932;-76
2023/04/08 06:19:47;;;;;;;;;;;;;;;5.98;100.00;96155.13;5108394;27;19931;-76
2023/04/08 06:22:13;;;;;;;;;;;;;;;5.88;100.00;96151.19;5117709;27;20294;-77
2023/04/08 06:24:39;;;;;;;;;;;;;;;5.74;100.00;96156.84;5114770;27;19935;-76
2023/04/08 06:27:06;;;;;;;;;;;;;;;5.91;100.00;96156.22;5116819;27;19924;-75
2023/04/08 06:29:32;;;;;;;;;;;;;;;5.99;100.00;96163.66;5112888;28;19976;-75
2023/04/08 06:31:59;;;;;;;;;;;;;;;6.08;100.00;96160.72;5115655;28;19928;-76
2023/04/08 06:34:26;;;;;;;;;;;;;;;5.95;100.00;96156.97;5113185;28;19931;-76
2023/04/08 06:36:53;;;;;;;;;;;;;;;5.88;100.00;96160.63;5101502;28;19924;-75
2023/04/08 06:39:20;;;;;;;;;;;;;;;5.89;100.00;96170.84;5118535;28;19932;-76
2023/04/08 06:41:46;;;;;;;;;;;;;;;5.94;100.00;96166.44;5107472;28;19993;-76
2023/04/08 06:44:12;;;;;;;;;;;;;;;5.92;100.00;96168.19;5112403;28;19930;-74
2023/04/08 06:46:39;;;;;;;;;;;;;;;5.90;100.00;96161.44;5095671;28;19928;-74
2023/04/08 06:49:05;;;;;;;;;;;;;;;5.94;100.00;96165.59;5095920;28;19924;-74
2023/04/08 06:51:33;;;;;;;;;;;;;;;6.04;100.00;96169.47;5115779;27;19947;-75
2023/04/08 06:53:59;;;;;;;;;;;;;;;6.01;100.00;96173.00;5110955;28;19927;-75
2023/04/08 06:56:26;;;;;;;;;;;;;;;6.07;100.00;96182.22;5113086;27;19930;-76
2023/04/08 06:58:52;;;;;;;;;;;;;;;6.22;100.00;96175.63;5120543;27;19954;-77
2023/04/08 07:01:18;;;;;;;;;;;;;;;6.32;100.00;96173.56;5099196;28;19971;-75
2023/04/08 07:03:44;;;;;;;;;;;;;;;6.03;100.00;96180.66;5103810;28;20375;-74
2023/04/08 07:06:11;;;;;;;;;;;;;;;6.21;100.00;96184.25;5104173;28;19924;-75
2023/04/08 07:08:38;;;;;;;;;;;;;;;6.16;100.00;96189.59;5112270;27;19923;-74
2023/04/08 07:11:05;;;;;;;;;;;;;;;6.32;100.00;96186.41;5123536;27;19923;-73
2023/04/08 07:13:31;;;;;;;;;;;;;;;6.25;100.00;96186.63;5121625;27;19923;-75
2023/04/08 07:15:58;;;;;;;;;;;;;;;6.46;100.00;96184.13;5121643;27;19930;-76
2023/04/08 07:18:25;;;;;;;;;;;;;;;6.53;100.00;96180.41;5110855;27;19932;-75
2023/04/08 07:20:52;;;;;;;;;;;;;;;6.28;100.00;96186.53;5118093;27;20295;-74
2023/04/08 07:23:18;;;;;;;;;;;;;;;6.33;100.00;96185.50;5104262;27;19924;-74
2023/04/08 07:25:45;;;;;;;;;;;;;;;6.39;100.00;96187.84;5118100;27;20001;-74
2023/04/08 07:28:12;;;;;;;;;;;;;;;6.48;100.00;96190.88;5114130;27;19924;-75
2023/04/08 07:30:38;;;;;;;;;;;;;;;6.42;100.00;96188.56;5120124;27;19934;-74
2023/04/08 07:33:05;;;;;;;;;;;;;;;6.24;100.00;96192.69;5103248;27;19924;-74
2023/04/08 07:35:31;;;;;;;;;;;;;;;6.22;100.00;96201.34;5123891;27;20469;-74
2023/04/08 07:37:57;;;;;;;;;;;;;;;6.18;100.00;96199.81;5119696;27;19923;-74
2023/04/08 07:40:24;;;;;;;;;;;;;;;6.12;100.00;96194.88;5120770;27;19927;-74
2023/04/08 07:42:51;;;;;;;;;;;;;;;6.17;100.00;96204.09;5118569;27;19928;-74
2023/04/08 07:45:18;;;;;;;;;;;;;;;6.26;100.00;96208.06;5122572;27;19927;-75
2023/04/08 07:47:44;;;;;;;;;;;;;;;6.19;100.00;96206.59;5119230;27;19928;-75
2023/04/08 07:50:11;;;;;;;;;;;;;;;6.07;100.00;96206.19;5126062;27;19924;-74
2023/04/08 07:52:37;;;;;;;;;;;;;;;6.12;100.00;96215.44;5126120;27;19931;-74
2023/04/08 07:55:04;;;;;;;;;;;;;;;6.16;100.00;96219.63;5102524;28;19928;-74
2023/04/08 07:57:31;;;;;;;;;;;;;;;6.10;100.00;96212.94;5111711;27;19968;-74
2023/04/08 07:59:58;;;;;;;;;;;;;;;6.17;100.00;96216.13;5122166;27;19924;-77
2023/04/08 08:02:24;;;;;;;;;;;;;;;6.33;100.00;96222.34;5110143;27;19942;-74
2023/04/08 08:04:51;;;;;;;;;;;;;;;6.52;100.00;96227.63;5112239;27;19931;-75
2023/04/08 08:07:17;;;;;;;;;;;;;;;6.58;100.00;96224.81;5119187;27;19951;-75
2023/04/08 08:09:43;;;;;;;;;;;;;;;6.67;100.00;96224.44;5103981;27;19935;-74
2023/04/08 08:12:10;;;;;;;;;;;;;;;6.66;100.00;96221.94;5107539;27;20297;-74
2023/04/08 08:14:36;;;;;;;;;;;;;;;6.49;100.00;96220.88;5124782;27;19928;-74
2023/04/08 08:17:04;;;;;;;;;;;;;;;6.46;100.00;96228.72;5119397;27;20279;-74
2023/04/08 08:19:31;;;;;;;;;;;;;;;6.64;100.00;96221.16;5110120;27;19923;-74
2023/04/08 08:21:57;;;;;;;;;;;;;;;6.70;100.00;96224.31;5109488;27;19923;-75
2023/04/08 08:24:24;;;;;;;;;;;;;;;6.70;100.00;96223.47;5102379;27;19928;-75
2023/04/08 08:26:51;;;;;;;;;;;;;;;6.82;100.00;96224.72;5114107;27;19981;-75
2023/04/08 08:29:18;;;;;;;;;;;;;;;6.75;100.00;96230.13;5112615;27;19931;-75
2023/04/08 08:31:47;;;;;;;;;;;;;;;6.87;100.00;96233.94;5123554;27;19924;-75
2023/04/08 08:34:15;;;;;;;;;;;;;;;6.77;100.00;96230.06;5106081;27;19924;-75
2023/04/08 08:36:41;;;;;;;;;;;;;;;7.00;100.00;96235.09;5124377;27;19930;-75
2023/04/08 08:39:07;;;;;;;;;;;;;;;7.05;100.00;96245.22;5118205;27;19923;-74
2023/04/08 08:41:35;;;;;;;;;;;;;;;7.08;100.00;96236.50;5128893;27;19928;-75
2023/04/08 08:44:02;;;;;;;;;;;;;;;7.23;100.00;96239.31;5104225;27;19924;-75
2023/04/08 08:46:28;;;;;;;;;;;;;;;7.56;100.00;96243.91;5102038;27;19932;-75
2023/04/08 08:48:55;;;;;;;;;;;;;;;7.99;100.00;96248.00;5115974;27;19931;-75
2023/04/08 08:51:22;;;;;;;;;;;;;;;8.75;100.00;96250.59;5116373;27;19931;-75
2023/04/08 08:53:49;;;;;;;;;;;;;;;8.73;100.00;96253.22;5123367;27;19927;-75
2023/04/08 08:56:16;;;;;;;;;;;;;;;8.46;100.00;96250.22;5109790;27;19932;-76
2023/04/08 08:58:42;;;;;;;;;;;;;;;8.52;100.00;96246.47;5118614;27;19928;-74
2023/04/08 09:01:27;;;;;;;;;;;;;;;8.65;100.00;96251.94;5111197;27;19924;-75
2023/04/08 09:04:07;;;;;;;;;;;;;;;8.61;100.00;96245.25;5119444;27;19924;-75
2023/04/08 09:06:35;;;;;;;;;;;;;;;8.59;100.00;96255.63;5108484;27;20049;-75
2023/04/08 09:09:04;;;;;;;;;;;;;;;8.58;100.00;96260.88;5114954;27;19971;-74
2023/04/08 09:11:31;;;;;;;;;;;;;;;8.67;100.00;96257.84;5114472;27;19924;-74
2023/04/08 09:13:57;;;;;;;;;;;;;;;8.72;100.00;96255.88;5115826;27;20270;-74
2023/04/08 09:16:24;;;;;;;;;;;;;;;8.77;100.00;96256.50;5112219;27;19928;-75
2023/04/08 09:18:51;;;;;;;;;;;;;;;9.18;100.00;96246.72;5109838;27;20381;-75
2023/04/08 09:21:17;;;;;;;;;;;;;;;9.12;100.00;96248.78;5111404;27;19928;-74
2023/04/08 09:23:46;;;;;;;;;;;;;;;9.45;100.00;96249.69;5115327;27;19931;-75
2023/04/08 09:26:14;;;;;;;13.20;11.13;;;;;;;9.10;100.00;96254.03;5093896;28;20379;-75
2023/04/08 09:28:41;;;;;;;;;;;;;;;9.71;100.00;96257.84;5103053;27;20048;-75
2023/04/08 09:31:18;;;;;;;;;;;;;;;9.17;100.00;96255.41;5122372;27;20391;-75
2023/04/08 09:33:45;;;;;;;;;;;;;;;8.91;100.00;96250.69;5112812;27;19955;-75
2023/04/08 09:36:11;;;;;;;;;;;;;;;9.12;100.00;96265.13;5124710;27;19977;-75
2023/04/08 09:38:38;;;;;;;;;;;;;;;9.51;100.00;96250.28;5118144;27;20439;-76
2023/04/08 09:41:07;;;;;;;;;;;;;;;9.65;100.00;96250.41;5124424;27;19923;-75
2023/04/08 09:43:36;;;;;;;;;;;;;;;10.18;100.00;96252.78;5114059;27;20302;-76
2023/04/08 09:46:04;;;;;;;;;;;;;;;10.23;100.00;96249.94;5113312;27;19924;-75
2023/04/08 09:48:34;;;;;;;;;;;;;;;9.50;100.00;96249.47;5113629;27;20018;-76
2023/04/08 09:51:01;;;;;;;;;;;;;;;9.04;100.00;96256.91;5108189;28;19920;-76
2023/04/08 09:53:30;;;;;;;;;;;;;;;8.89;100.00;96261.06;5113290;27;19969;-76
2023/04/08 09:55:58;;;;;;;;;;;;;;;8.85;100.00;96262.13;5118068;27;19958;-76
2023/04/08 09:58:28;;;;;;;;;;;;;;;9.25;100.00;96260.19;5123025;27;19920;-76
2023/04/08 10:00:55;;;;;;;;;;;;;;;9.32;100.00;96266.72;5117568;27;19924;-76
2023/04/08 10:03:26;;;;;;;;;;;;;;;9.05;100.00;96260.31;5117316;27;19927;-76
2023/04/08 10:05:53;;;;;;;;;;;;;;;9.12;100.00;96269.44;5111125;27;19927;-75
2023/04/08 10:08:19;;;;;;;;;;;;;;;9.08;100.00;96263.59;5120779;27;19930;-76
2023/04/08 10:10:46;;;;;;;;;;;;;;;9.31;100.00;96266.81;5121205;27;19919;-75
2023/04/08 10:13:13;;;;;;;;;;;;;;;9.04;100.00;96271.56;5119335;27;19931;-76
2023/04/08 10:15:42;;;;;;;;;;;;;;;8.86;100.00;96265.53;5106673;28;20292;-76
2023/04/08 10:18:27;;;;;;;;;;;;;;;8.70;100.00;96258.53;5119896;27;20444;-76
2023/04/08 10:20:53;;;;;;;;;;;;;;;8.75;100.00;96266.09;5120515;27;19923;-76
2023/04/08 10:23:39;;;;;;;;;;;;;;;9.08;100.00;96260.16;5120281;27;19924;-75
2023/04/08 10:26:26;;;;;;;;;;;;;;;9.12;100.00;96261.69;5120788;27;19927;-75
2023/04/08 10:28:52;;;;;;;;;;;;;;;8.98;100.00;96258.97;5106967;28;19927;-76
2023/04/08 10:31:23;;;;;;;;;;;;;;;9.24;100.00;96262.84;5116192;27;19931;-76
2023/04/08 10:33:49;;;;;;;;;;;;;;;9.09;100.00;96265.28;5101576;28;19924;-76
2023/04/08 10:36:16;;;;;;;;;;;;;;;8.99;100.00;96265.81;5120567;28;19924;-76
2023/04/08 10:38:43;;;;;;;;;;;;;;;9.05;100.00;96266.34;5105737;28;19942;-76
2023/04/08 10:41:10;;;;;;;;;;;;;;;9.24;100.00;96257.69;5116187;28;19923;-76
2023/04/08 10:43:36;;;;;;;;;;;;;;;9.14;100.00;96260.72;5119996;28;19927;-76
2023/04/08 10:46:03;;;;;;;;;;;;;;;9.28;100.00;96269.53;5112627;28;19943;-75
2023/04/08 10:48:31;;;;;;;;;;;;;;;9.01;100.00;96261.38;5121305;28;19954;-76
2023/04/08 10:50:58;;;;;;;;;;;;;;;9.18;100.00;96261.41;5118003;28;19919;-76
2023/04/08 10:53:28;;;;;;;;;;;;;;;9.67;100.00;96258.91;5110903;28;19920;-76
2023/04/08 10:55:54;;;;;;;;;;;;;;;9.80;100.00;96261.72;5119319;27;19952;-76
2023/04/08 10:58:20;;;;;;;;;;;;;;;9.17;100.00;96265.72;5104167;28;19924;-76
2023/04/08 11:00:47;;;;;;;;;;;;;;;8.92;100.00;96263.50;5109924;28;19919;-75
2023/04/08 11:03:13;;;;;;;;;;;;;;;9.21;100.00;96264.66;5114785;28;19931;-75
2023/04/08 11:05:41;;;;;;;;;;;;;;;9.19;100.00;96263.88;5107948;28;19924;-75
2023/04/08 11:08:07;;;;;;;;;;;;;;;9.05;100.00;96260.31;5118944;28;19920;-76
2023/04/08 11:10:37;;;;;;;;;;;;;;;9.50;100.00;96262.38;5116994;28;19927;-76
2023/04/08 11:13:06;;;;;;;;;;;;;;;9.28;98.38;96267.78;5116474;28;19927;-73
2023/04/08 11:15:34;;;;;;;;;;;;;;;9.11;97.53;96265.19;5106271;28;19958;-74
2023/04/08 11:18:02;;;;;;;;;;;;;;;9.25;100.00;96265.34;5100949;28;19923;-74
2023/04/08 11:20:28;;;;;;;;;;;;;;;9.43;100.00;96250.69;5102902;28;19930;-74
2023/04/08 11:22:57;;;;;;;;;;;;;;;8.95;100.00;96259.94;5104631;28;19927;-74
2023/04/08 11:25:23;;;;;;;;;;;;;;;8.68;100.00;96260.38;5106685;28;19930;-74
2023/04/08 11:27:50;;;;;;;;;;;;;;;8.75;100.00;96263.50;5113593;28;19919;-74
2023/04/08 11:30:16;;;;;;;;;;;;;;;8.52;100.00;96255.97;5111011;28;20011;-74
2023/04/08 11:32:43;;;;;;;;;;;;;;;8.47;100.00;96251.03;5114495;28;19924;-75
2023/04/08 11:35:09;;;;;;;;;;;;;;;8.76;100.00;96254.00;5116235;28;19926;-73
2023/04/08 11:37:39;;;;;;;;;;;;;;;8.76;100.00;96254.00;5113982;28;19919;-72
2023/04/08 11:40:11;;;;;;;;;;;;;;;8.66;100.00;96261.34;5113831;28;19920;-73
2023/04/08 11:42:37;;;;;;;;;;;;;;;8.89;100.00;96257.66;5111270;27;19919;-73
2023/04/08 11:45:10;;;;;;;;;;;;;;;8.95;100.00;96255.59;5122217;27;19923;-73
2023/04/08 11:47:36;;;;;;;;;;;;;;;8.89;100.00;96248.16;5113630;27;19920;-73
2023/04/08 11:50:02;;;;;;;;;;;;;;;9.03;100.00;96252.66;5120334;27;19920;-73
2023/04/08 11:52:43;;;;;;;;;;;;;;;8.69;100.00;96259.44;5118696;27;19925;-73
2023/04/08 11:55:11;;;;;;;;;;;;;;;8.68;100.00;96255.19;5110820;27;19920;-73
2023/04/08 11:57:38;;;;;;;;;;;;;;;8.88;100.00;96256.81;5122684;27;19958;-73
2023/04/08 12:00:05;;;;;;;;;;;;;;;8.91;100.00;96256.66;5116325;27;19924;-72
2023/04/08 12:02:31;;;;;;;;;;;;;;;8.74;100.00;96259.22;5113017;27;19965;-72
2023/04/08 12:04:58;;;;;;;;;;;;;;;8.89;100.00;96258.47;5124092;27;19920;-73
2023/04/08 12:07:24;;;;;;;;;;;;;;;8.92;100.00;96263.50;5115322;27;19927;-72
2023/04/08 12:09:51;;;;;;;;;;;;;;;9.01;100.00;96259.66;5122346;27;19920;-72
2023/04/08 12:12:18;;;;;;;;;;;;;;;8.98;100.00;96266.72;5097841;27;20320;-72
2023/04/08 12:14:44;;;;;;;;;;;;;;;9.03;100.00;96260.41;5115916;27;19919;-73
2023/04/08 12:17:11;;;;;;;;;;;;;;;9.14;100.00;96262.47;5114398;27;19927;-73
2023/04/08 12:19:37;;;;;;;;;;;;;;;9.16;100.00;96261.47;5127503;27;19926;-72
2023/04/08 12:22:03;;;;;;;;;;;;;;;9.40;100.00;96262.00;5112733;27;19931;-73
2023/04/08 12:24:30;;;;;;;;;;;;;;;9.55;100.00;96262.97;5130842;27;20296;-72
2023/04/08 12:26:56;;;;;;;;;;;;;;;9.04;100.00;96269.81;5112786;27;19927;-73
2023/04/08 12:29:24;;;;;;;;;;;;;;;9.07;100.00;96266.25;5121743;27;19924;-73
2023/04/08 12:31:50;;;;;;;;;;;;;;;9.05;100.00;96265.47;5118532;27;19939;-75
2023/04/08 12:34:16;;;;;;;;;;;;;;;8.92;100.00;96266.09;5121351;27;19942;-75
2023/04/08 12:36:43;;;;;;;;;;;;;;;8.86;100.00;96263.81;5121010;27;20464;-75
2023/04/08 12:39:10;;;;;;;;;;;;;;;8.92;94.40;96262.66;5096961;27;19967;-73
2023/04/08 12:41:36;;;;;;;;;;;;;;;8.98;92.05;96266.72;5128940;27;20332;-74
2023/04/08 12:44:02;;;;;;;;;;;;;;;8.95;89.99;96259.94;5118550;27;19931;-74
2023/04/08 12:46:30;;;;;;;;;;;;;;;8.92;91.37;96253.16;5105720;27;20385;-74